createdAt,value
2023-04-30T00:00:44.406Z,100.00
2023-04-30T00:03:49.747Z,100.00
2023-04-30T00:06:53.482Z,100.00
2023-04-30T00:09:57.348Z,100.00
2023-04-30T00:13:01.289Z,100.00
2023-04-30T00:16:05.576Z,100.00
2023-04-30T00:19:10.620Z,100.00
2023-04-30T00:22:14.271Z,100.00
2023-04-30T00:25:18.089Z,100.00
2023-04-30T00:28:21.682Z,100.00
2023-04-30T00:31:25.458Z,100.00
2023-04-30T00:34:30.614Z,100.00
2023-04-30T00:37:34.383Z,100.00
2023-04-30T00:40:39.502Z,100.00
2023-04-30T00:43:43.321Z,100.00
2023-04-30T00:46:46.878Z,100.00
2023-04-30T00:49:52.416Z,100.00
2023-04-30T00:52:57.411Z,100.00
2023-04-30T00:56:01.202Z,100.00
2023-04-30T00:59:04.921Z,100.00
2023-04-30T01:02:09.712Z,100.00
2023-04-30T01:05:14.695Z,100.00
2023-04-30T01:08:18.651Z,100.00
2023-04-30T01:11:35.453Z,100.00
2023-04-30T01:15:03.101Z,100.00
2023-04-30T01:18:15.145Z,100.00
2023-04-30T01:21:21.215Z,100.00
2023-04-30T01:24:51.401Z,100.00
2023-04-30T01:28:09.734Z,100.00
2023-04-30T01:31:16.625Z,100.00
2023-04-30T01:34:20.273Z,100.00
2023-04-30T01:37:38.057Z,100.00
2023-04-30T01:40:54.138Z,100.00
2023-04-30T01:44:19.175Z,100.00
2023-04-30T01:47:35.185Z,100.00
2023-04-30T01:50:48.578Z,100.00
2023-04-30T01:53:56.725Z,100.00
2023-04-30T01:57:06.368Z,100.00
2023-04-30T02:00:13.540Z,100.00
2023-04-30T02:03:17.244Z,100.00
2023-04-30T02:06:21.232Z,100.00
2023-04-30T02:09:24.824Z,100.00
2023-04-30T02:12:30.196Z,100.00
2023-04-30T02:15:35.428Z,100.00
2023-04-30T02:18:39.403Z,100.00
2023-04-30T02:21:42.942Z,100.00
2023-04-30T02:24:46.797Z,100.00
2023-04-30T02:27:51.552Z,100.00
2023-04-30T02:30:57.232Z,100.00
2023-04-30T02:34:01.090Z,100.00
2023-04-30T02:37:04.817Z,100.00
2023-04-30T02:40:10.811Z,100.00
2023-04-30T02:43:14.575Z,100.00
2023-04-30T02:46:19.741Z,100.00
2023-04-30T02:49:23.534Z,100.00
2023-04-30T02:52:27.225Z,100.00
2023-04-30T02:55:31.208Z,100.00
2023-04-30T02:58:34.809Z,100.00
2023-04-30T03:01:40.082Z,100.00
2023-04-30T03:04:43.837Z,100.00
2023-04-30T03:07:47.466Z,100.00
2023-04-30T03:10:51.086Z,100.00
2023-04-30T03:13:55.075Z,100.00
2023-04-30T03:17:00.034Z,100.00
2023-04-30T03:20:03.738Z,100.00
2023-04-30T03:23:07.328Z,100.00
2023-04-30T03:26:10.998Z,100.00
2023-04-30T03:29:14.648Z,100.00
2023-04-30T03:32:19.607Z,100.00
2023-04-30T03:35:23.247Z,100.00
2023-04-30T03:38:27.219Z,100.00
2023-04-30T03:41:30.875Z,100.00
2023-04-30T03:44:34.474Z,100.00
2023-04-30T03:47:39.447Z,100.00
2023-04-30T03:50:43.337Z,100.00
2023-04-30T03:53:46.893Z,100.00
2023-04-30T03:56:50.586Z,100.00
2023-04-30T03:59:54.511Z,100.00
2023-04-30T04:03:00.685Z,100.00
2023-04-30T04:06:05.491Z,100.00
2023-04-30T04:09:09.153Z,100.00
2023-04-30T04:12:12.768Z,100.00
2023-04-30T04:15:16.499Z,100.00
2023-04-30T04:18:21.523Z,100.00
2023-04-30T04:21:25.110Z,100.00
2023-04-30T04:24:28.940Z,100.00
2023-04-30T04:27:32.756Z,100.00
2023-04-30T04:30:36.710Z,100.00
2023-04-30T04:33:41.786Z,100.00
2023-04-30T04:36:46.030Z,100.00
2023-04-30T04:39:49.639Z,100.00
2023-04-30T04:42:53.270Z,100.00
2023-04-30T04:45:56.913Z,100.00
2023-04-30T04:49:02.137Z,100.00
2023-04-30T04:52:07.516Z,100.00
2023-04-30T04:55:11.481Z,100.00
2023-04-30T04:58:15.170Z,100.00
2023-04-30T05:01:18.844Z,100.00
2023-04-30T05:04:23.944Z,100.00
2023-04-30T05:07:27.526Z,100.00
2023-04-30T05:10:31.221Z,100.00
2023-04-30T05:13:34.825Z,100.00
2023-04-30T05:16:38.690Z,100.00
2023-04-30T05:19:43.806Z,100.00
2023-04-30T05:22:47.655Z,100.00
2023-04-30T05:25:53.528Z,100.00
2023-04-30T05:28:57.170Z,100.00
2023-04-30T05:32:00.822Z,100.00
2023-04-30T05:35:06.790Z,100.00
2023-04-30T05:38:10.445Z,100.00
2023-04-30T05:41:14.607Z,100.00
2023-04-30T05:44:18.221Z,100.00
2023-04-30T05:47:22.357Z,100.00
2023-04-30T05:50:27.612Z,100.00
2023-04-30T05:53:31.165Z,100.00
2023-04-30T05:56:34.769Z,100.00
2023-04-30T05:59:38.314Z,100.00
2023-04-30T06:02:42.003Z,100.00
2023-04-30T06:05:47.633Z,100.00
2023-04-30T06:08:51.440Z,100.00
2023-04-30T06:11:55.866Z,100.00
2023-04-30T06:15:00.088Z,100.00
2023-04-30T06:18:03.715Z,100.00
2023-04-30T06:21:08.958Z,100.00
2023-04-30T06:24:12.706Z,100.00
2023-04-30T06:27:16.426Z,100.00
2023-04-30T06:30:20.575Z,100.00
2023-04-30T06:33:24.228Z,100.00
2023-04-30T06:36:29.315Z,100.00
2023-04-30T06:39:32.908Z,100.00
2023-04-30T06:42:36.649Z,100.00
2023-04-30T06:45:40.800Z,100.00
2023-04-30T06:48:44.398Z,100.00
2023-04-30T06:51:49.911Z,100.00
2023-04-30T06:54:54.410Z,100.00
2023-04-30T06:57:58.915Z,100.00
2023-04-30T07:01:02.742Z,100.00
2023-04-30T07:04:06.707Z,100.00
2023-04-30T07:07:11.733Z,100.00
2023-04-30T07:10:15.419Z,100.00
2023-04-30T07:13:19.053Z,100.00
2023-04-30T07:16:23.094Z,100.00
2023-04-30T07:19:27.635Z,100.00
2023-04-30T07:22:32.982Z,100.00
2023-04-30T07:25:36.893Z,100.00
2023-04-30T07:28:40.680Z,100.00
2023-04-30T07:31:44.648Z,100.00
2023-04-30T07:34:48.688Z,100.00
2023-04-30T07:37:53.756Z,100.00
2023-04-30T07:40:57.669Z,100.00
2023-04-30T07:44:01.463Z,100.00
2023-04-30T07:47:05.216Z,100.00
2023-04-30T07:50:09.881Z,100.00
2023-04-30T07:53:15.089Z,100.00
2023-04-30T07:56:19.021Z,100.00
2023-04-30T07:59:24.685Z,100.00
2023-04-30T08:02:28.690Z,100.00
2023-04-30T08:05:32.844Z,100.00
2023-04-30T08:08:38.102Z,100.00
2023-04-30T08:11:42.846Z,100.00
2023-04-30T08:14:46.610Z,100.00
2023-04-30T08:17:51.504Z,96.41
2023-04-30T08:20:55.585Z,89.09
2023-04-30T08:24:00.526Z,100.00
2023-04-30T08:27:04.439Z,98.08
2023-04-30T08:30:09.388Z,87.97
2023-04-30T08:33:13.460Z,93.23
2023-04-30T08:36:17.074Z,96.85
2023-04-30T08:39:22.130Z,100.00
2023-04-30T08:42:32.287Z,100.00
2023-04-30T08:45:37.996Z,80.54
2023-04-30T08:48:42.976Z,73.90
2023-04-30T08:51:48.426Z,77.05
2023-04-30T08:54:56.190Z,70.81
2023-04-30T08:57:59.897Z,70.28
2023-04-30T09:01:04.311Z,77.80
2023-04-30T09:04:09.472Z,79.47
2023-04-30T09:07:15.496Z,73.30
2023-04-30T09:10:22.876Z,91.74
2023-04-30T09:13:26.444Z,84.77
2023-04-30T09:16:47.379Z,79.17
2023-04-30T09:19:51.396Z,82.51
2023-04-30T09:23:08.497Z,92.89
2023-04-30T09:26:28.281Z,78.29
2023-04-30T09:29:39.019Z,77.21
2023-04-30T09:32:57.383Z,87.79
2023-04-30T09:36:11.379Z,80.96
2023-04-30T09:39:17.481Z,80.34
2023-04-30T09:42:23.357Z,84.16
2023-04-30T09:45:27.607Z,78.98
2023-04-30T09:48:31.845Z,76.95
2023-04-30T09:51:35.919Z,79.35
2023-04-30T09:54:40.811Z,88.26
2023-04-30T09:57:46.394Z,90.10
2023-04-30T10:00:54.960Z,95.87
2023-04-30T10:03:59.529Z,100.00
2023-04-30T10:07:09.998Z,100.00
2023-04-30T10:10:15.040Z,100.00
2023-04-30T10:13:23.021Z,100.00
2023-04-30T10:16:45.010Z,100.00
2023-04-30T10:19:53.631Z,100.00
2023-04-30T10:22:57.930Z,100.00
2023-04-30T10:26:02.165Z,100.00
2023-04-30T10:29:08.803Z,98.33
2023-04-30T10:32:15.017Z,95.83
2023-04-30T10:35:25.685Z,88.88
2023-04-30T10:38:33.643Z,90.67
2023-04-30T10:41:37.277Z,89.54
2023-04-30T10:44:42.853Z,89.94
2023-04-30T10:47:47.142Z,89.97
2023-04-30T10:50:53.692Z,93.85
2023-04-30T10:53:58.154Z,96.31
2023-04-30T10:57:23.032Z,91.41
2023-04-30T11:00:31.926Z,91.13
2023-04-30T11:03:37.654Z,88.21
2023-04-30T11:06:57.826Z,91.54
2023-04-30T11:10:03.379Z,95.64
2023-04-30T11:13:10.346Z,94.53
2023-04-30T11:16:17.804Z,95.44
2023-04-30T11:19:24.880Z,95.09
2023-04-30T11:22:36.148Z,95.98
2023-04-30T11:25:45.782Z,96.99
2023-04-30T11:28:56.759Z,97.37
2023-04-30T11:32:05.802Z,98.06
2023-04-30T11:35:10.547Z,99.35
2023-04-30T11:38:16.770Z,98.11
2023-04-30T11:41:23.382Z,100.00
2023-04-30T11:44:28.766Z,94.12
2023-04-30T11:47:43.910Z,95.30
2023-04-30T11:50:48.045Z,99.05
2023-04-30T11:53:53.450Z,97.42
2023-04-30T11:57:02.296Z,100.00
2023-04-30T12:00:17.381Z,98.21
2023-04-30T12:03:22.637Z,97.70
2023-04-30T12:06:28.897Z,97.28
2023-04-30T12:09:32.642Z,96.08
2023-04-30T12:12:39.090Z,100.00
2023-04-30T12:15:43.060Z,97.84
2023-04-30T12:18:50.189Z,91.92
2023-04-30T12:21:57.167Z,89.24
2023-04-30T12:25:02.437Z,83.58
2023-04-30T12:28:07.221Z,91.54
2023-04-30T12:31:12.345Z,94.66
2023-04-30T12:34:18.548Z,86.68
2023-04-30T12:37:22.805Z,86.35
2023-04-30T12:40:29.496Z,90.50
2023-04-30T12:43:33.366Z,90.67
2023-04-30T12:46:37.660Z,86.28
2023-04-30T12:49:43.078Z,85.71
2023-04-30T12:52:46.827Z,89.45
2023-04-30T12:56:10.566Z,97.84
2023-04-30T12:59:17.861Z,96.53
2023-04-30T13:02:26.028Z,100.00
2023-04-30T13:05:31.246Z,94.40
2023-04-30T13:08:45.555Z,99.15
2023-04-30T13:12:00.252Z,93.96
2023-04-30T13:15:04.787Z,89.04
2023-04-30T13:18:09.831Z,87.45
2023-04-30T13:21:14.800Z,93.64
2023-04-30T13:24:19.196Z,91.91
2023-04-30T13:27:22.732Z,87.54
2023-04-30T13:30:26.782Z,88.17
2023-04-30T13:33:30.563Z,88.19
2023-04-30T13:36:35.658Z,95.50
2023-04-30T13:39:39.506Z,86.37
2023-04-30T13:42:44.199Z,85.79
2023-04-30T13:45:47.915Z,83.60
2023-04-30T13:48:53.364Z,83.46
2023-04-30T13:51:58.390Z,86.72
2023-04-30T13:55:02.357Z,91.74
2023-04-30T13:58:06.397Z,85.41
2023-04-30T14:01:10.595Z,84.30
2023-04-30T14:04:15.231Z,83.64
2023-04-30T14:07:20.614Z,84.00
2023-04-30T14:10:24.265Z,88.32
2023-04-30T14:13:28.064Z,88.95
2023-04-30T14:16:31.766Z,86.16
2023-04-30T14:19:35.955Z,91.14
2023-04-30T14:22:41.161Z,90.25
2023-04-30T14:25:44.939Z,88.82
2023-04-30T14:28:48.679Z,85.33
2023-04-30T14:31:52.558Z,88.97
2023-04-30T14:34:56.330Z,86.13
2023-04-30T14:38:01.306Z,86.51
2023-04-30T14:41:05.084Z,87.72
2023-04-30T14:44:08.991Z,84.29
2023-04-30T14:47:13.055Z,88.22
2023-04-30T14:50:16.898Z,85.65
2023-04-30T14:53:21.860Z,80.67
2023-04-30T14:56:26.289Z,80.74
2023-04-30T14:59:30.142Z,81.21
2023-04-30T15:02:33.943Z,82.82
2023-04-30T15:05:38.003Z,82.12
2023-04-30T15:08:43.060Z,85.10
2023-04-30T15:11:46.702Z,87.84
2023-04-30T15:14:50.664Z,81.78
2023-04-30T15:17:55.171Z,81.54
2023-04-30T15:20:58.917Z,84.12
2023-04-30T15:24:03.931Z,84.18
2023-04-30T15:27:07.477Z,87.26
2023-04-30T15:30:11.911Z,80.61
2023-04-30T15:33:15.715Z,81.57
2023-04-30T15:36:19.517Z,88.71
2023-04-30T15:39:24.457Z,86.74
2023-04-30T15:42:28.156Z,83.20
2023-04-30T15:45:38.531Z,82.97
2023-04-30T15:48:42.168Z,84.84
2023-04-30T15:51:46.412Z,85.43
2023-04-30T15:54:51.628Z,84.64
2023-04-30T15:57:55.316Z,82.45
2023-04-30T16:00:59.004Z,81.78
2023-04-30T16:04:02.849Z,85.87
2023-04-30T16:07:06.805Z,83.14
2023-04-30T16:10:13.064Z,81.19
2023-04-30T16:13:16.731Z,84.41
2023-04-30T16:16:20.553Z,81.61
2023-04-30T16:19:24.302Z,84.84
2023-04-30T16:22:28.395Z,82.64
2023-04-30T16:25:34.088Z,80.51
2023-04-30T16:28:37.657Z,85.02
2023-04-30T16:31:42.025Z,83.36
2023-04-30T16:34:46.115Z,86.49
2023-04-30T16:37:49.756Z,87.27
2023-04-30T16:40:55.399Z,86.27
2023-04-30T16:43:59.250Z,86.09
2023-04-30T16:47:03.081Z,86.46
2023-04-30T16:50:08.434Z,86.33
2023-04-30T16:53:12.579Z,88.01
2023-04-30T16:56:17.557Z,87.52
2023-04-30T16:59:21.525Z,89.69
2023-04-30T17:02:25.162Z,86.62
2023-04-30T17:05:28.904Z,87.69
2023-04-30T17:08:32.796Z,90.23
2023-04-30T17:11:37.875Z,90.13
2023-04-30T17:14:42.131Z,89.42
2023-04-30T17:17:45.705Z,93.17
2023-04-30T17:20:49.768Z,92.44
2023-04-30T17:23:54.778Z,92.29
2023-04-30T17:27:00.992Z,97.26
2023-04-30T17:30:05.068Z,99.75
2023-04-30T17:33:08.976Z,100.00
2023-04-30T17:36:13.135Z,98.25
2023-04-30T17:39:16.801Z,97.72
2023-04-30T17:42:21.740Z,98.52
2023-04-30T17:45:26.896Z,100.00
2023-04-30T17:48:31.107Z,98.97
2023-04-30T17:51:35.594Z,100.00
2023-04-30T17:54:39.390Z,100.00
2023-04-30T17:57:44.482Z,100.00
2023-04-30T18:00:48.571Z,100.00
2023-04-30T18:03:52.927Z,100.00
2023-04-30T18:06:56.623Z,100.00
2023-04-30T18:10:00.539Z,100.00
2023-04-30T18:13:06.250Z,100.00
2023-04-30T18:16:10.291Z,100.00
2023-04-30T18:19:14.559Z,100.00
2023-04-30T18:22:19.061Z,100.00
2023-04-30T18:25:22.911Z,100.00
2023-04-30T18:28:28.214Z,100.00
2023-04-30T18:31:32.036Z,100.00
2023-04-30T18:34:35.782Z,100.00
2023-04-30T18:37:39.519Z,100.00
2023-04-30T18:40:43.135Z,100.00
2023-04-30T18:43:48.383Z,100.00
2023-04-30T18:46:52.764Z,100.00
2023-04-30T18:49:56.934Z,100.00
2023-04-30T18:53:00.720Z,100.00
2023-04-30T18:56:04.327Z,100.00
2023-04-30T18:59:10.394Z,100.00
2023-04-30T19:02:15.256Z,100.00
2023-04-30T19:05:19.268Z,100.00
2023-04-30T19:08:22.860Z,100.00
2023-04-30T19:11:27.180Z,100.00
2023-04-30T19:14:32.826Z,100.00
2023-04-30T19:17:36.592Z,100.00
2023-04-30T19:20:40.377Z,100.00
2023-04-30T19:23:43.875Z,100.00
2023-04-30T19:26:47.704Z,100.00
2023-04-30T19:29:53.859Z,100.00
2023-04-30T19:32:58.094Z,100.00
2023-04-30T19:36:01.643Z,100.00
2023-04-30T19:39:07.361Z,100.00
2023-04-30T19:42:11.261Z,100.00
2023-04-30T19:45:16.541Z,100.00
2023-04-30T19:48:21.203Z,100.00
2023-04-30T19:51:24.957Z,100.00
2023-04-30T19:54:28.540Z,100.00
2023-04-30T19:57:34.919Z,100.00
2023-04-30T20:00:43.168Z,100.00
2023-04-30T20:03:47.004Z,100.00
2023-04-30T20:06:57.007Z,100.00
2023-04-30T20:10:01.068Z,100.00
2023-04-30T20:13:05.934Z,100.00
2023-04-30T20:16:12.676Z,100.00
2023-04-30T20:19:16.660Z,100.00
2023-04-30T20:22:20.233Z,100.00
2023-04-30T20:25:28.350Z,100.00
2023-04-30T20:28:32.023Z,100.00
2023-04-30T20:31:37.827Z,100.00
2023-04-30T20:34:42.048Z,100.00
2023-04-30T20:37:45.689Z,100.00
2023-04-30T20:40:49.604Z,100.00
2023-04-30T20:43:54.148Z,100.00
2023-04-30T20:46:59.282Z,100.00
2023-04-30T20:50:03.295Z,100.00
2023-04-30T20:53:08.394Z,100.00
2023-04-30T20:56:14.045Z,100.00
2023-04-30T20:59:17.639Z,100.00
2023-04-30T21:02:22.673Z,100.00
2023-04-30T21:05:27.055Z,100.00
2023-04-30T21:08:31.254Z,100.00
2023-04-30T21:11:35.235Z,100.00
2023-04-30T21:14:38.876Z,100.00
2023-04-30T21:17:43.981Z,100.00
2023-04-30T21:20:47.668Z,100.00
2023-04-30T21:23:51.313Z,100.00
2023-04-30T21:26:55.079Z,100.00
2023-04-30T21:29:58.785Z,100.00
2023-04-30T21:33:04.868Z,100.00
2023-04-30T21:36:09.243Z,100.00
2023-04-30T21:39:12.761Z,100.00
2023-04-30T21:42:16.507Z,100.00
2023-04-30T21:45:20.280Z,100.00
2023-04-30T21:48:25.385Z,100.00
2023-04-30T21:51:29.001Z,100.00
2023-04-30T21:54:32.673Z,100.00
2023-04-30T21:57:36.296Z,100.00
2023-04-30T22:00:39.871Z,100.00
2023-04-30T22:03:44.922Z,100.00
2023-04-30T22:06:48.845Z,100.00
2023-04-30T22:09:52.866Z,100.00
2023-04-30T22:12:56.514Z,100.00
2023-04-30T22:16:00.088Z,100.00
2023-04-30T22:19:05.244Z,100.00
2023-04-30T22:22:08.830Z,100.00
2023-04-30T22:25:12.509Z,100.00
2023-04-30T22:28:18.369Z,100.00
2023-04-30T22:31:22.076Z,100.00
2023-04-30T22:34:27.553Z,100.00
2023-04-30T22:37:31.358Z,100.00
2023-04-30T22:40:36.198Z,100.00
2023-04-30T22:43:39.905Z,100.00
2023-04-30T22:46:45.331Z,100.00
2023-04-30T22:49:50.915Z,100.00
2023-04-30T22:52:56.344Z,100.00
2023-04-30T22:55:59.981Z,100.00
2023-04-30T22:59:03.534Z,100.00
2023-04-30T23:02:07.266Z,100.00
2023-04-30T23:05:12.921Z,100.00
2023-04-30T23:08:16.629Z,100.00
2023-04-30T23:11:20.696Z,100.00
2023-04-30T23:14:24.323Z,100.00
2023-04-30T23:17:28.098Z,100.00
2023-04-30T23:20:33.601Z,100.00
2023-04-30T23:23:37.228Z,100.00
2023-04-30T23:26:41.316Z,100.00
2023-04-30T23:29:44.934Z,100.00
2023-04-30T23:32:48.564Z,100.00
2023-04-30T23:35:54.640Z,100.00
2023-04-30T23:38:58.350Z,100.00
2023-04-30T23:42:02.601Z,100.00
2023-04-30T23:45:07.288Z,100.00
2023-04-30T23:48:10.964Z,100.00
2023-04-30T23:51:15.928Z,100.00
2023-04-30T23:54:19.558Z,100.00
2023-04-30T23:57:23.134Z,100.00
